Azure — ZCEE2 — position and weather

sailwx.info

Track history (hours):
 
Tides and Currents Weather Stations Pressure Air Temp Water Temp Dewpoint Dewpoint Depression Visibility Wind Speed Wind Dir Waves Ship Positions

Azure

Last reported at 2014-Aug-02 06:33 UTC. Time now 2014-Aug-02 06:42 UTC.
Position N 50°54' W 001°24'.

Length 289 m; draft 8.6 m.

Type: Ship. MMSI: 310610000.

Date/timePositionNaut miles runAvg speedWind from/ knotsBaromVisibWave heightAir tempDewpointWater temp
2014-Aug-02 06:33N 50°54' W 001°24'0 0.4
2014-Aug-02 05:33N 50°53' W 001°24'8 7.7
2014-Aug-02 04:33N 50°47' W 001°18'1515.5
2014-Aug-02 03:34N 50°40' W 000°56'1918.6
2014-Aug-02 02:33N 50°35' W 000°28'2120.6
2014-Aug-02 01:33N 50°34' E 000°05'2019.8
2014-Aug-02 00:33N 50°38' E 000°35'2020.4
2014-Aug-01 23:33N 50°49' E 001°03'2222.3
2014-Aug-01 22:34N 51°03' E 001°30'2322.9
2014-Aug-01 21:33N 51°22' E 001°51'2121.5
2014-Aug-01 20:33N 51°41' E 002°04'2220.0
2014-Aug-01 19:28N 52°02' E 002°15'2019.3
2014-Aug-01 18:27N 52°21' E 002°22'1532.3
2014-Aug-01 18:00N 52°36' E 002°24'5 9.5 170 / 191006.810.8 0.519.215.518.0
2014-Aug-01 17:25N 52°41' E 002°28'1619.1
2014-Aug-01 16:33N 52°57' E 002°34'2019.8
2014-Aug-01 15:33N 53°16' E 002°44'2120.7
2014-Aug-01 14:33N 53°35' E 002°57'2820.6
2014-Aug-01 13:13N 54°01' E 003°09'21519.2
2014-Aug-01 02:00N 57°36' E 003°42'17415.1 250 / 161007.810.8 16.011.419.0
2014-Jul-31 14:26N 60°24' E 005°13'3 0.3
2014-Jul-31 05:30N 60°24' E 005°19'3 3.0
2014-Jul-31 04:34N 60°24' E 005°13'  
2014-Jul-28 16:32N 59°12' E 005°01'1616.3
2014-Jul-28 15:33N 59°06' E 005°31'10 9.8
2014-Jul-28 14:31N 58°59' E 005°44'0 0.0
2014-Jul-28 13:31N 58°59' E 005°44'0 0.0
2014-Jul-28 12:33N 58°59' E 005°44'0 0.0
2014-Jul-28 11:33N 58°59' E 005°44'0 0.0
2014-Jul-28 10:32N 58°59' E 005°44'0 0.0
2014-Jul-28 09:32N 58°59' E 005°44'0 0.0
2014-Jul-28 08:32N 58°59' E 005°44'0 0.0
2014-Jul-28 07:31N 58°59' E 005°44'5 4.9
2014-Jul-28 06:33N 59°02' E 005°37'1010.2
2014-Jul-28 05:33N 58°52' E 005°31'1413.8
2014-Jul-28 04:33N 58°40' E 005°19'4818.6
2014-Jul-28 02:00N 57°54' E 004°54'19816.5 290 / 181013.610.8 18.515.120.0
2014-Jul-27 14:00N 54°42' E 003°24'10515.6 290 / 221013.910.8 0.518.514.221.0
2014-Jul-27 07:15N 53°02' E 002°30'3118.3
2014-Jul-27 05:33N 52°31' E 002°22'2019.9
2014-Jul-27 04:34N 52°11' E 002°17'2019.8
2014-Jul-27 03:34N 51°52' E 002°11'2020.2
2014-Jul-27 02:34N 51°33' E 001°58'1615.9
2014-Jul-27 01:34N 51°17' E 001°55'2221.7
2014-Jul-27 00:34N 51°01' E 001°32'2121.2
2014-Jul-26 23:34N 50°42' E 001°19'2020.1
2014-Jul-26 22:33N 50°30' E 000°52'2120.6
2014-Jul-26 21:34N 50°26' E 000°21'2020.4
2014-Jul-26 20:34N 50°23' W 000°11'2120.6
2014-Jul-26 19:34N 50°34' W 000°39'1817.7
2014-Jul-26 18:33N 50°43' W 001°02'1313.2
2014-Jul-26 17:34N 50°51' W 001°20'4 4.0
2014-Jul-26 16:33N 50°54' W 001°24'0 0.0
2014-Jul-26 15:33N 50°54' W 001°24'0 0.0
2014-Jul-26 14:33N 50°54' W 001°24'0 0.0
2014-Jul-26 13:32N 50°54' W 001°24'0 0.0
2014-Jul-26 12:32N 50°54' W 001°24'0 0.0
2014-Jul-26 11:31N 50°54' W 001°24'0 0.0
2014-Jul-26 10:31N 50°54' W 001°24'0 0.0
2014-Jul-26 09:31N 50°54' W 001°24'0 0.0
2014-Jul-26 08:33N 50°54' W 001°24'0 0.0
2014-Jul-26 07:33N 50°54' W 001°24'0 0.0
2014-Jul-26 06:32N 50°54' W 001°24'0 0.0
2014-Jul-26 05:32N 50°54' W 001°24'5 5.2
2014-Jul-26 04:33N 50°50' W 001°19'1211.6
2014-Jul-26 03:33N 50°44' W 001°03'1110.7
2014-Jul-26 02:33N 50°33' W 001°00'1212.0
2014-Jul-26 01:33N 50°28' W 001°17'16714.8
2014-Jul-25 14:18N 48°51' W 004°48'1033.3
2014-Jul-25 14:00N 48°42' W 004°54'713.8 050 / 141015.4 5.4 18.016.318.0
2014-Jul-25 13:30N 48°44' W 005°04'1616.1
2014-Jul-25 12:32N 48°33' W 005°21'1816.1
2014-Jul-25 11:23N 48°16' W 005°34'14715.6
2014-Jul-25 02:00N 46°00' W 006°54'184 7.7 360 / 151014.4 2.2 19.418.120.5
2014-Jul-24 02:00N 43°24' W 009°12'13412.2 360 / 201014.810.8 19.017.419.0
2014-Jul-23 15:00N 41°30' W 010°48'10513.7 320 / 261015.510.8 0.520.016.720.0
2014-Jul-23 07:21N 39°58' W 011°53'1026.8
2014-Jul-23 07:00N 39°48' W 011°54'   350 / 221016.410.8 1.020.515.520.0
Track history (hours):
 
Tides and Currents Weather Stations Pressure Air Temp Water Temp Dewpoint Dewpoint Depression Visibility Wind Speed Wind Dir Waves Ship Positions

Azure

Last reported at 2014-Aug-02 06:33 UTC. Time now 2014-Aug-02 06:42 UTC.
Position N 50°54' W 001°24'.

Length 289 m; draft 8.6 m.

Type: Ship. MMSI: 310610000.

Date/timePositionNaut miles runAvg speedWind from/ knotsBaromVisibWave heightAir tempDewpointWater temp
2014-Aug-02 06:33N 50°54' W 001°24'0 0.4
2014-Aug-02 05:33N 50°53' W 001°24'8 7.7
2014-Aug-02 04:33N 50°47' W 001°18'1515.5
2014-Aug-02 03:34N 50°40' W 000°56'1918.6
2014-Aug-02 02:33N 50°35' W 000°28'2120.6
2014-Aug-02 01:33N 50°34' E 000°05'2019.8
2014-Aug-02 00:33N 50°38' E 000°35'2020.4
2014-Aug-01 23:33N 50°49' E 001°03'2222.3
2014-Aug-01 22:34N 51°03' E 001°30'2322.9
2014-Aug-01 21:33N 51°22' E 001°51'2121.5
2014-Aug-01 20:33N 51°41' E 002°04'2220.0
2014-Aug-01 19:28N 52°02' E 002°15'2019.3
2014-Aug-01 18:27N 52°21' E 002°22'1532.3
2014-Aug-01 18:00N 52°36' E 002°24'5 9.5 170 / 191006.810.8 0.519.215.518.0
2014-Aug-01 17:25N 52°41' E 002°28'1619.1
2014-Aug-01 16:33N 52°57' E 002°34'2019.8
2014-Aug-01 15:33N 53°16' E 002°44'2120.7
2014-Aug-01 14:33N 53°35' E 002°57'2820.6
2014-Aug-01 13:13N 54°01' E 003°09'21519.2
2014-Aug-01 02:00N 57°36' E 003°42'17415.1 250 / 161007.810.8 16.011.419.0
2014-Jul-31 14:26N 60°24' E 005°13'3 0.3
2014-Jul-31 05:30N 60°24' E 005°19'3 3.0
2014-Jul-31 04:34N 60°24' E 005°13'  
2014-Jul-28 16:32N 59°12' E 005°01'1616.3
2014-Jul-28 15:33N 59°06' E 005°31'10 9.8
2014-Jul-28 14:31N 58°59' E 005°44'0 0.0
2014-Jul-28 13:31N 58°59' E 005°44'0 0.0
2014-Jul-28 12:33N 58°59' E 005°44'0 0.0
2014-Jul-28 11:33N 58°59' E 005°44'0 0.0
2014-Jul-28 10:32N 58°59' E 005°44'0 0.0
2014-Jul-28 09:32N 58°59' E 005°44'0 0.0
2014-Jul-28 08:32N 58°59' E 005°44'0 0.0
2014-Jul-28 07:31N 58°59' E 005°44'5 4.9
2014-Jul-28 06:33N 59°02' E 005°37'1010.2
2014-Jul-28 05:33N 58°52' E 005°31'1413.8
2014-Jul-28 04:33N 58°40' E 005°19'4818.6
2014-Jul-28 02:00N 57°54' E 004°54'19816.5 290 / 181013.610.8 18.515.120.0
2014-Jul-27 14:00N 54°42' E 003°24'10515.6 290 / 221013.910.8 0.518.514.221.0
2014-Jul-27 07:15N 53°02' E 002°30'3118.3
2014-Jul-27 05:33N 52°31' E 002°22'2019.9
2014-Jul-27 04:34N 52°11' E 002°17'2019.8
2014-Jul-27 03:34N 51°52' E 002°11'2020.2
2014-Jul-27 02:34N 51°33' E 001°58'1615.9
2014-Jul-27 01:34N 51°17' E 001°55'2221.7
2014-Jul-27 00:34N 51°01' E 001°32'2121.2
2014-Jul-26 23:34N 50°42' E 001°19'2020.1
2014-Jul-26 22:33N 50°30' E 000°52'2120.6
2014-Jul-26 21:34N 50°26' E 000°21'2020.4
2014-Jul-26 20:34N 50°23' W 000°11'2120.6
2014-Jul-26 19:34N 50°34' W 000°39'1817.7
2014-Jul-26 18:33N 50°43' W 001°02'1313.2
2014-Jul-26 17:34N 50°51' W 001°20'4 4.0
2014-Jul-26 16:33N 50°54' W 001°24'0 0.0
2014-Jul-26 15:33N 50°54' W 001°24'0 0.0
2014-Jul-26 14:33N 50°54' W 001°24'0 0.0
2014-Jul-26 13:32N 50°54' W 001°24'0 0.0
2014-Jul-26 12:32N 50°54' W 001°24'0 0.0
2014-Jul-26 11:31N 50°54' W 001°24'0 0.0
2014-Jul-26 10:31N 50°54' W 001°24'0 0.0
2014-Jul-26 09:31N 50°54' W 001°24'0 0.0
2014-Jul-26 08:33N 50°54' W 001°24'0 0.0
2014-Jul-26 07:33N 50°54' W 001°24'0 0.0
2014-Jul-26 06:32N 50°54' W 001°24'0 0.0
2014-Jul-26 05:32N 50°54' W 001°24'5 5.2
2014-Jul-26 04:33N 50°50' W 001°19'1211.6
2014-Jul-26 03:33N 50°44' W 001°03'1110.7
2014-Jul-26 02:33N 50°33' W 001°00'1212.0
2014-Jul-26 01:33N 50°28' W 001°17'16714.8
2014-Jul-25 14:18N 48°51' W 004°48'1033.3
2014-Jul-25 14:00N 48°42' W 004°54'713.8 050 / 141015.4 5.4 18.016.318.0
2014-Jul-25 13:30N 48°44' W 005°04'1616.1
2014-Jul-25 12:32N 48°33' W 005°21'1816.1
2014-Jul-25 11:23N 48°16' W 005°34'14715.6
2014-Jul-25 02:00N 46°00' W 006°54'184 7.7 360 / 151014.4 2.2 19.418.120.5
2014-Jul-24 02:00N 43°24' W 009°12'13412.2 360 / 201014.810.8 19.017.419.0
2014-Jul-23 15:00N 41°30' W 010°48'10513.7 320 / 261015.510.8 0.520.016.720.0
2014-Jul-23 07:21N 39°58' W 011°53'1026.8
2014-Jul-23 07:00N 39°48' W 011°54'   350 / 221016.410.8 1.020.515.520.0

Dump ship's entire track history